createdAt,value
2019-01-24T00:04:45.407Z,55.50
2019-01-24T00:07:14.693Z,63.03
2019-01-24T00:09:44.010Z,63.53
2019-01-24T00:12:13.225Z,63.87
2019-01-24T00:14:42.677Z,59.63
2019-01-24T00:17:11.897Z,60.50
2019-01-24T00:19:41.099Z,61.17
2019-01-24T00:22:10.346Z,59.30
2019-01-24T00:24:39.512Z,68.93
2019-01-24T00:29:39.941Z,62.80
2019-01-24T00:32:09.468Z,70.43
2019-01-24T00:34:38.710Z,61.77
2019-01-24T00:37:07.953Z,63.07
2019-01-24T00:39:37.203Z,69.20
2019-01-24T00:42:06.441Z,64.33
2019-01-24T00:44:35.673Z,67.00
2019-01-24T00:47:05.142Z,57.97
2019-01-24T00:49:34.683Z,66.93
2019-01-24T00:52:03.876Z,63.07
2019-01-24T00:54:33.067Z,63.23
2019-01-24T00:57:02.307Z,63.80
2019-01-24T00:59:31.483Z,62.03
2019-01-24T01:02:00.727Z,62.17
2019-01-24T01:04:30.008Z,62.03
2019-01-24T01:07:00.733Z,57.63
2019-01-24T01:09:30.985Z,62.90
2019-01-24T01:12:00.335Z,67.90
2019-01-24T01:14:29.512Z,60.37
2019-01-24T01:16:58.744Z,57.80
2019-01-24T01:19:27.920Z,64.97
2019-01-24T01:21:57.140Z,63.83
2019-01-24T01:24:26.314Z,61.53
2019-01-24T01:26:56.085Z,59.07
2019-01-24T01:29:25.269Z,60.73
2019-01-24T01:31:54.970Z,64.23
2019-01-24T01:34:24.144Z,62.47
2019-01-24T01:36:53.374Z,62.17
2019-01-24T01:39:22.549Z,64.33
2019-01-24T01:41:51.763Z,65.80
2019-01-24T01:44:21.244Z,66.77
2019-01-24T01:46:50.726Z,63.40
2019-01-24T01:49:19.926Z,64.37
2019-01-24T01:51:49.428Z,65.53
2019-01-24T01:54:18.618Z,62.93
2019-01-24T01:56:47.799Z,57.73
2019-01-24T01:59:17.279Z,66.47
2019-01-24T02:01:46.459Z,64.40
2019-01-24T02:04:15.658Z,52.90
2019-01-24T02:06:44.881Z,63.90
2019-01-24T02:09:14.155Z,60.90
2019-01-24T02:11:43.364Z,68.90
2019-01-24T02:14:12.838Z,54.80
2019-01-24T02:16:42.425Z,64.23
2019-01-24T02:19:12.456Z,69.53
2019-01-24T02:21:41.637Z,65.27
2019-01-24T02:24:11.143Z,60.20
2019-01-24T02:26:40.343Z,58.27
2019-01-24T02:29:09.989Z,57.47
2019-01-24T02:31:39.209Z,64.40
2019-01-24T02:34:08.466Z,62.50
2019-01-24T02:36:37.682Z,61.17
2019-01-24T02:39:09.595Z,63.60
2019-01-24T02:41:38.762Z,63.20
2019-01-24T02:44:07.973Z,68.37
2019-01-24T02:46:37.160Z,58.80
2019-01-24T02:49:06.354Z,63.80
2019-01-24T02:51:35.803Z,61.77
2019-01-24T02:54:05.025Z,60.47
2019-01-24T02:56:34.215Z,72.43
2019-01-24T02:59:03.411Z,64.50
2019-01-24T03:01:32.603Z,60.33
2019-01-24T03:04:01.799Z,66.07
2019-01-24T03:06:30.991Z,64.43
2019-01-24T03:09:00.190Z,65.87
2019-01-24T03:11:29.368Z,70.27
2019-01-24T03:13:58.591Z,62.07
2019-01-24T03:16:27.810Z,62.80
2019-01-24T03:18:57.302Z,60.00
2019-01-24T03:21:26.485Z,61.10
2019-01-24T03:23:56.197Z,69.03
2019-01-24T03:26:25.782Z,62.33
2019-01-24T03:28:55.022Z,59.37
2019-01-24T03:31:24.212Z,59.70
2019-01-24T03:33:53.435Z,62.07
2019-01-24T03:36:22.591Z,67.40
2019-01-24T03:38:51.786Z,60.90
2019-01-24T03:41:21.223Z,57.93
2019-01-24T03:43:50.422Z,60.93
2019-01-24T03:46:20.265Z,67.50
2019-01-24T03:48:49.463Z,60.13
2019-01-24T03:51:18.658Z,59.57
2019-01-24T03:53:48.142Z,56.87
2019-01-24T03:56:17.415Z,55.73
2019-01-24T03:58:46.609Z,66.10
2019-01-24T04:01:16.502Z,64.53
2019-01-24T04:03:45.700Z,65.20
2019-01-24T04:06:14.907Z,69.67
2019-01-24T04:08:44.098Z,58.93
2019-01-24T04:11:13.543Z,65.87
2019-01-24T04:13:42.744Z,60.40
2019-01-24T04:16:11.961Z,68.90
2019-01-24T04:18:41.162Z,55.27
2019-01-24T04:21:10.388Z,70.60
2019-01-24T04:23:40.164Z,60.37
2019-01-24T04:26:09.350Z,67.63
2019-01-24T04:28:38.542Z,57.93
2019-01-24T04:31:07.733Z,65.37
2019-01-24T04:33:37.245Z,70.40
2019-01-24T04:36:06.430Z,57.63
2019-01-24T04:38:35.642Z,60.57
2019-01-24T04:41:04.813Z,70.40
2019-01-24T04:43:34.029Z,63.47
2019-01-24T04:46:03.211Z,58.90
2019-01-24T04:48:32.416Z,59.73
2019-01-24T04:51:01.593Z,60.77
2019-01-24T04:53:30.780Z,61.13
2019-01-24T04:55:59.986Z,64.50
2019-01-24T04:58:29.159Z,61.13
2019-01-24T05:00:58.358Z,61.97
2019-01-24T05:03:27.535Z,53.97
2019-01-24T05:05:57.014Z,58.80
2019-01-24T05:08:26.195Z,56.80
2019-01-24T05:10:55.673Z,59.87
2019-01-24T05:13:25.106Z,63.27
2019-01-24T05:15:54.630Z,65.10
2019-01-24T05:18:24.098Z,60.83
2019-01-24T05:20:53.646Z,53.40
2019-01-24T05:23:22.838Z,57.13
2019-01-24T05:25:52.368Z,62.10
2019-01-24T05:28:21.556Z,64.63
2019-01-24T05:30:50.751Z,59.03
2019-01-24T05:33:19.949Z,67.97
2019-01-24T05:35:49.140Z,59.63
2019-01-24T05:38:18.319Z,65.20
2019-01-24T05:40:47.535Z,67.63
2019-01-24T05:43:16.986Z,56.03
2019-01-24T05:45:46.192Z,62.03
2019-01-24T05:48:15.373Z,65.93
2019-01-24T05:50:45.542Z,66.57
2019-01-24T05:53:14.724Z,69.40
2019-01-24T05:55:43.914Z,62.73
2019-01-24T05:58:13.102Z,52.80
2019-01-24T06:03:19.959Z,61.87
2019-01-24T06:05:49.314Z,63.13
2019-01-24T06:08:18.493Z,60.00
2019-01-24T06:10:47.697Z,58.77
2019-01-24T06:13:16.880Z,59.43
2019-01-24T06:15:46.132Z,63.27
2019-01-24T06:18:15.360Z,59.83
2019-01-24T06:20:44.624Z,63.23
2019-01-24T06:23:13.807Z,60.27
2019-01-24T06:25:43.033Z,72.13
2019-01-24T06:28:12.210Z,65.73
2019-01-24T06:30:41.430Z,67.73
2019-01-24T06:33:10.884Z,74.00
2019-01-24T06:35:40.119Z,69.47
2019-01-24T06:38:09.638Z,66.73
2019-01-24T06:40:39.262Z,67.07
2019-01-24T06:43:08.709Z,70.87
2019-01-24T06:45:37.941Z,67.13
2019-01-24T06:48:07.227Z,71.10
2019-01-24T06:50:36.445Z,69.97
2019-01-24T06:53:05.639Z,66.80
2019-01-24T06:55:34.846Z,72.93
2019-01-24T06:58:04.038Z,64.57
2019-01-24T07:00:33.339Z,70.20
2019-01-24T07:03:02.518Z,65.67
2019-01-24T07:05:31.711Z,74.83
2019-01-24T07:08:00.895Z,67.23
2019-01-24T07:10:30.117Z,73.23
2019-01-24T07:12:59.698Z,72.50
2019-01-24T07:15:28.911Z,69.03
2019-01-24T07:17:58.116Z,68.03
2019-01-24T07:20:27.640Z,71.83
2019-01-24T07:22:56.819Z,68.30
2019-01-24T07:25:47.315Z,66.23
2019-01-24T07:28:16.520Z,76.03
2019-01-24T07:30:45.747Z,75.57
2019-01-24T07:33:14.952Z,79.50
2019-01-24T07:35:44.275Z,91.30
2019-01-24T07:38:13.754Z,68.83
2019-01-24T07:40:43.996Z,74.70
2019-01-24T07:43:13.203Z,72.17
2019-01-24T07:45:42.647Z,55.90
2019-01-24T07:48:18.902Z,76.73
2019-01-24T07:50:48.098Z,67.63
2019-01-24T07:53:18.203Z,69.10
2019-01-24T07:55:47.744Z,71.87
2019-01-24T07:58:17.578Z,60.87
2019-01-24T08:00:47.491Z,67.10
2019-01-24T08:03:16.995Z,72.93
2019-01-24T08:08:41.285Z,62.37
2019-01-24T08:11:10.513Z,68.63
2019-01-24T08:13:39.989Z,69.70
2019-01-24T08:16:09.234Z,62.40
2019-01-24T08:18:38.518Z,71.77
2019-01-24T08:21:08.014Z,63.17
2019-01-24T08:23:37.200Z,72.20
2019-01-24T08:26:06.419Z,73.93
2019-01-24T08:28:35.617Z,71.67
2019-01-24T08:31:04.884Z,66.67
2019-01-24T08:33:34.140Z,63.10
2019-01-24T08:36:03.623Z,65.20
2019-01-24T08:38:32.821Z,66.53
2019-01-24T08:41:02.034Z,71.40
2019-01-24T08:43:31.214Z,64.97
2019-01-24T08:46:00.700Z,58.47
2019-01-24T08:48:29.927Z,58.13
2019-01-24T08:50:59.158Z,60.43
2019-01-24T08:53:28.346Z,68.40
2019-01-24T08:55:57.568Z,73.53
2019-01-24T08:58:27.071Z,69.17
2019-01-24T09:00:56.499Z,70.57
2019-01-24T09:03:26.231Z,71.20
2019-01-24T09:05:55.438Z,77.80
2019-01-24T09:08:24.638Z,81.47
2019-01-24T09:10:53.821Z,81.80
2019-01-24T09:13:23.073Z,77.30
2019-01-24T09:15:52.371Z,77.77
2019-01-24T09:18:22.279Z,85.37
2019-01-24T09:20:51.476Z,77.23
2019-01-24T09:23:21.082Z,80.20
2019-01-24T09:25:50.304Z,87.20
2019-01-24T09:28:19.829Z,91.23
2019-01-24T09:30:49.292Z,84.10
2019-01-24T09:33:18.567Z,88.43
2019-01-24T09:35:47.855Z,85.50
2019-01-24T09:38:17.089Z,79.00
2019-01-24T09:40:46.278Z,88.57
2019-01-24T09:43:15.524Z,77.53
2019-01-24T09:45:44.715Z,78.67
2019-01-24T09:48:14.052Z,86.03
2019-01-24T09:50:43.503Z,89.23
2019-01-24T09:53:13.061Z,85.07
2019-01-24T09:55:42.243Z,86.67
2019-01-24T09:58:11.723Z,79.40
2019-01-24T10:00:41.189Z,95.17
2019-01-24T10:03:11.104Z,84.10
2019-01-24T10:05:40.586Z,85.57
2019-01-24T10:08:09.820Z,84.03
2019-01-24T10:10:39.018Z,82.73
2019-01-24T10:13:08.531Z,80.90
2019-01-24T10:15:37.748Z,81.07
2019-01-24T10:18:27.486Z,79.40
2019-01-24T10:20:57.183Z,83.13
2019-01-24T10:23:26.391Z,87.30
2019-01-24T10:25:55.868Z,88.70
2019-01-24T10:28:44.143Z,74.70
2019-01-24T10:31:13.326Z,82.83
2019-01-24T10:33:42.530Z,81.00
2019-01-24T10:36:12.094Z,88.23
2019-01-24T10:38:41.311Z,72.57
2019-01-24T10:41:10.653Z,89.50
2019-01-24T10:43:39.863Z,76.57
2019-01-24T10:46:09.058Z,73.70
2019-01-24T10:48:38.381Z,80.03
2019-01-24T10:51:07.955Z,85.27
2019-01-24T10:53:37.157Z,69.90
2019-01-24T10:56:06.734Z,78.23
2019-01-24T10:58:36.238Z,85.80
2019-01-24T11:01:26.013Z,84.50
2019-01-24T11:03:55.212Z,79.53
2019-01-24T11:06:24.720Z,81.03
2019-01-24T11:08:53.932Z,85.03
2019-01-24T11:11:23.132Z,79.97
2019-01-24T11:13:52.331Z,79.67
2019-01-24T11:16:21.556Z,78.63
2019-01-24T11:18:50.776Z,84.77
2019-01-24T11:21:19.957Z,88.30
2019-01-24T11:23:49.427Z,80.30
2019-01-24T11:26:19.042Z,77.87
2019-01-24T11:28:48.243Z,87.27
2019-01-24T11:31:17.479Z,76.73
2019-01-24T11:33:46.720Z,77.70
2019-01-24T11:36:15.915Z,85.33
2019-01-24T11:38:45.134Z,81.60
2019-01-24T11:41:14.306Z,82.17
2019-01-24T11:43:46.242Z,86.53
2019-01-24T11:46:15.450Z,70.50
2019-01-24T11:48:45.141Z,73.07
2019-01-24T11:51:14.338Z,70.63
2019-01-24T11:53:43.640Z,69.07
2019-01-24T11:56:12.967Z,67.77
2019-01-24T11:58:42.752Z,78.43
2019-01-24T12:01:12.135Z,69.23
2019-01-24T12:03:41.687Z,69.53
2019-01-24T12:06:10.906Z,78.33
2019-01-24T12:08:40.376Z,73.77
2019-01-24T12:11:09.914Z,67.47
2019-01-24T12:13:39.108Z,76.13
2019-01-24T12:16:08.403Z,63.73
2019-01-24T12:18:38.046Z,57.17
2019-01-24T12:21:07.234Z,67.77
2019-01-24T12:23:36.790Z,73.53
2019-01-24T12:26:06.399Z,78.70
2019-01-24T12:28:35.860Z,69.80
2019-01-24T12:31:05.068Z,78.30
2019-01-24T12:36:33.114Z,74.17
2019-01-24T12:39:02.340Z,81.43
2019-01-24T12:41:31.916Z,72.33
2019-01-24T12:44:01.938Z,67.93
2019-01-24T12:46:31.459Z,76.63
2019-01-24T12:49:01.010Z,69.90
2019-01-24T12:51:30.830Z,72.27
2019-01-24T12:54:00.498Z,70.17
2019-01-24T12:56:30.241Z,71.87
2019-01-24T12:58:59.782Z,72.67
2019-01-24T13:01:29.374Z,71.40
2019-01-24T13:03:58.830Z,77.80
2019-01-24T13:06:28.441Z,71.33
2019-01-24T13:08:58.181Z,71.20
2019-01-24T13:11:27.725Z,81.37
2019-01-24T13:13:56.983Z,67.43
2019-01-24T13:16:26.462Z,76.67
2019-01-24T13:18:55.903Z,74.17
2019-01-24T13:21:25.528Z,71.90
2019-01-24T13:23:55.486Z,79.03
2019-01-24T13:26:25.192Z,69.50
2019-01-24T13:28:55.254Z,79.03
2019-01-24T13:31:24.457Z,76.43
2019-01-24T13:33:54.198Z,75.50
2019-01-24T13:36:24.592Z,70.43
2019-01-24T13:38:54.689Z,77.17
2019-01-24T13:41:24.312Z,74.63
2019-01-24T13:43:53.812Z,89.30
2019-01-24T13:46:23.416Z,78.07
2019-01-24T13:48:53.262Z,76.63
2019-01-24T13:51:22.468Z,82.23
2019-01-24T13:53:52.347Z,80.50
2019-01-24T13:56:21.910Z,71.20
2019-01-24T13:58:51.186Z,79.30
2019-01-24T14:01:20.509Z,73.30
2019-01-24T14:03:54.140Z,82.73
2019-01-24T14:06:23.735Z,83.67
2019-01-24T14:08:53.231Z,77.20
2019-01-24T14:11:22.418Z,73.40
2019-01-24T14:13:52.289Z,71.90
2019-01-24T14:16:21.884Z,71.90
2019-01-24T14:18:51.091Z,71.10
2019-01-24T14:21:20.629Z,80.03
2019-01-24T14:23:50.490Z,83.47
2019-01-24T14:26:20.345Z,79.83
2019-01-24T14:28:49.833Z,78.07
2019-01-24T14:31:19.328Z,80.00
2019-01-24T14:33:48.874Z,75.47
2019-01-24T14:36:25.116Z,78.27
2019-01-24T14:38:49.712Z,74.73
2019-01-24T14:41:58.637Z,78.97
2019-01-24T14:44:28.096Z,74.53
2019-01-24T14:46:58.129Z,75.87
2019-01-24T14:49:28.275Z,86.10
2019-01-24T14:51:58.209Z,93.47
2019-01-24T14:54:27.831Z,77.13
2019-01-24T14:56:57.330Z,83.60
2019-01-24T14:59:27.155Z,83.10
2019-01-24T15:01:56.343Z,83.80
2019-01-24T15:04:25.933Z,81.60
2019-01-24T15:06:55.410Z,93.50
2019-01-24T15:09:24.668Z,85.07
2019-01-24T15:11:54.121Z,86.13
2019-01-24T15:14:23.670Z,83.27
2019-01-24T15:16:53.964Z,85.77
2019-01-24T15:19:23.431Z,84.43
2019-01-24T15:21:53.232Z,83.80
2019-01-24T15:24:23.441Z,82.03
2019-01-24T15:26:53.350Z,79.30
2019-01-24T15:29:23.089Z,77.87
2019-01-24T15:31:52.285Z,86.63
2019-01-24T15:34:22.194Z,77.23
2019-01-24T15:36:51.991Z,84.00
2019-01-24T15:39:21.678Z,83.20
2019-01-24T15:41:51.270Z,85.63
2019-01-24T15:44:20.823Z,73.73
2019-01-24T15:46:50.640Z,88.03
2019-01-24T15:49:20.718Z,80.20
2019-01-24T15:54:38.996Z,86.57
2019-01-24T15:57:08.239Z,79.93
2019-01-24T15:59:37.526Z,93.70
2019-01-24T16:02:06.808Z,76.27
2019-01-24T16:04:36.326Z,84.50
2019-01-24T16:07:05.566Z,77.67
2019-01-24T16:09:34.817Z,77.97
2019-01-24T16:12:04.291Z,75.17
2019-01-24T16:14:53.204Z,82.40
2019-01-24T16:17:22.772Z,81.23
2019-01-24T16:19:52.570Z,77.40
2019-01-24T16:22:22.457Z,94.17
2019-01-24T16:24:51.687Z,83.33
2019-01-24T16:27:21.566Z,90.37
2019-01-24T16:29:51.029Z,85.33
2019-01-24T16:32:20.792Z,82.67
2019-01-24T16:34:51.577Z,84.93
2019-01-24T16:37:40.606Z,78.17
2019-01-24T16:40:11.364Z,96.60
2019-01-24T16:42:40.589Z,82.27
2019-01-24T16:45:12.947Z,84.03
2019-01-24T16:48:01.784Z,90.23
2019-01-24T16:50:31.290Z,80.23
2019-01-24T16:53:00.476Z,87.73
2019-01-24T16:55:48.773Z,78.43
2019-01-24T16:58:18.253Z,75.60
2019-01-24T17:01:08.420Z,80.90
2019-01-24T17:03:57.144Z,86.03
2019-01-24T17:06:45.573Z,83.60
2019-01-24T17:09:14.784Z,85.57
2019-01-24T17:12:03.131Z,87.53
2019-01-24T17:14:32.879Z,77.00
2019-01-24T17:17:13.708Z,84.10
2019-01-24T17:19:43.195Z,80.50
2019-01-24T17:22:31.705Z,84.33
2019-01-24T17:25:01.194Z,90.00
2019-01-24T17:27:30.655Z,75.30
2019-01-24T17:29:59.844Z,87.50
2019-01-24T17:32:29.558Z,83.80
2019-01-24T17:34:58.808Z,89.33
2019-01-24T17:37:28.751Z,86.63
2019-01-24T17:39:58.276Z,87.90
2019-01-24T17:42:27.484Z,89.43
2019-01-24T17:44:56.987Z,80.00
2019-01-24T17:47:26.289Z,79.73
2019-01-24T17:49:57.333Z,85.13
2019-01-24T17:52:26.616Z,90.60
2019-01-24T17:54:55.995Z,81.67
2019-01-24T17:57:25.298Z,88.53
2019-01-24T17:59:55.083Z,83.87
2019-01-24T18:02:43.970Z,88.20
2019-01-24T18:05:13.244Z,84.73
2019-01-24T18:07:42.595Z,78.37
2019-01-24T18:10:35.989Z,78.70
2019-01-24T18:13:05.920Z,85.33
2019-01-24T18:15:35.513Z,82.13
2019-01-24T18:18:25.433Z,85.27
2019-01-24T18:20:55.047Z,88.63
2019-01-24T18:23:43.344Z,79.63
2019-01-24T18:26:12.821Z,81.23
2019-01-24T18:28:42.351Z,85.73
2019-01-24T18:31:11.549Z,85.40
2019-01-24T18:33:41.143Z,75.97
2019-01-24T18:36:10.637Z,83.37
2019-01-24T18:38:39.810Z,86.17
2019-01-24T18:41:09.045Z,77.57
2019-01-24T18:43:38.197Z,83.93
2019-01-24T18:46:07.636Z,85.17
2019-01-24T18:48:37.267Z,83.60
2019-01-24T18:51:06.491Z,82.83
2019-01-24T18:53:35.734Z,81.23
2019-01-24T18:56:05.286Z,87.50
2019-01-24T18:58:35.001Z,80.60
2019-01-24T19:01:05.898Z,87.43
2019-01-24T19:03:35.115Z,82.57
2019-01-24T19:06:23.387Z,93.33
2019-01-24T19:08:52.951Z,84.00
2019-01-24T19:11:41.235Z,89.50
2019-01-24T19:14:10.718Z,78.40
2019-01-24T19:16:39.909Z,83.40
2019-01-24T19:19:09.630Z,80.07
2019-01-24T19:21:39.289Z,82.27
2019-01-24T19:24:08.752Z,77.27
2019-01-24T19:26:37.969Z,86.13
2019-01-24T19:29:07.163Z,89.37
2019-01-24T19:31:36.604Z,81.03
2019-01-24T19:34:06.034Z,90.97
2019-01-24T19:36:35.210Z,82.43
2019-01-24T19:39:24.894Z,79.27
2019-01-24T19:41:54.436Z,80.07
2019-01-24T19:44:23.913Z,88.47
2019-01-24T19:46:53.110Z,79.40
2019-01-24T19:49:22.323Z,86.10
2019-01-24T19:51:51.504Z,83.97
2019-01-24T19:54:41.191Z,83.73
2019-01-24T19:57:10.667Z,80.43
2019-01-24T19:59:40.198Z,84.90
2019-01-24T20:02:09.827Z,81.03
2019-01-24T20:04:39.022Z,81.60
2019-01-24T20:07:08.193Z,81.53
2019-01-24T20:09:37.424Z,80.93
2019-01-24T20:12:07.386Z,81.70
2019-01-24T20:14:36.857Z,84.97
2019-01-24T20:17:06.078Z,89.67
2019-01-24T20:19:54.825Z,86.23
2019-01-24T20:22:24.423Z,97.50
2019-01-24T20:24:53.859Z,84.17
2019-01-24T20:27:42.170Z,82.83
2019-01-24T20:30:14.885Z,81.80
2019-01-24T20:32:44.113Z,86.50
2019-01-24T20:35:16.658Z,82.43
2019-01-24T20:40:41.327Z,84.97
2019-01-24T20:43:12.035Z,83.17
2019-01-24T20:45:41.268Z,85.73
2019-01-24T20:48:10.552Z,93.70
2019-01-24T20:50:39.812Z,79.87
2019-01-24T20:53:09.477Z,82.20
2019-01-24T20:55:38.765Z,79.37
2019-01-24T20:58:08.394Z,83.10
2019-01-24T21:00:37.648Z,87.97
2019-01-24T21:03:25.928Z,81.13
2019-01-24T21:05:55.117Z,86.40
2019-01-24T21:08:24.321Z,74.80
2019-01-24T21:10:53.487Z,86.70
2019-01-24T21:13:22.714Z,84.43
2019-01-24T21:15:52.141Z,82.70
2019-01-24T21:18:21.665Z,86.17
2019-01-24T21:21:10.286Z,84.70
2019-01-24T21:23:39.498Z,86.57
2019-01-24T21:26:08.948Z,84.53
2019-01-24T21:28:38.146Z,84.73
2019-01-24T21:31:07.689Z,87.07
2019-01-24T21:33:36.893Z,89.20
2019-01-24T21:36:06.086Z,89.70
2019-01-24T21:38:35.550Z,104.03
2019-01-24T21:41:04.826Z,96.00
2019-01-24T21:43:34.090Z,97.30
2019-01-24T21:46:03.345Z,101.43
2019-01-24T21:48:53.197Z,91.07
2019-01-24T21:51:22.400Z,93.50
2019-01-24T21:53:52.079Z,91.60
2019-01-24T21:56:40.327Z,99.67
2019-01-24T21:59:09.568Z,91.80
2019-01-24T22:01:38.757Z,92.53
2019-01-24T22:04:08.309Z,90.53
2019-01-24T22:06:37.910Z,84.20
2019-01-24T22:09:09.684Z,98.77
2019-01-24T22:11:38.858Z,94.70
2019-01-24T22:14:08.068Z,83.27
2019-01-24T22:16:37.492Z,91.13
2019-01-24T22:19:07.052Z,82.17
2019-01-24T22:21:36.239Z,86.97
2019-01-24T22:24:05.858Z,93.30
2019-01-24T22:26:35.051Z,88.43
2019-01-24T22:29:04.749Z,101.83
2019-01-24T22:31:33.941Z,92.87
2019-01-24T22:34:03.474Z,104.10
2019-01-24T22:36:32.663Z,95.10
2019-01-24T22:39:02.150Z,111.40
2019-01-24T22:47:04.979Z,100.13
2019-01-24T22:49:34.215Z,97.17
2019-01-24T22:52:23.616Z,105.90
2019-01-24T22:54:53.443Z,107.20
2019-01-24T22:57:22.817Z,110.27
2019-01-24T22:59:52.047Z,100.53
2019-01-24T23:02:40.863Z,108.20
2019-01-24T23:05:10.134Z,109.20
2019-01-24T23:07:39.341Z,110.40
2019-01-24T23:10:09.441Z,109.57
2019-01-24T23:12:38.664Z,109.00
2019-01-24T23:15:47.301Z,95.67
2019-01-24T23:18:16.514Z,99.83
2019-01-24T23:20:45.734Z,101.37
2019-01-24T23:23:15.279Z,95.53
2019-01-24T23:25:44.476Z,91.47
2019-01-24T23:28:13.652Z,99.70
2019-01-24T23:30:42.867Z,106.50
2019-01-24T23:33:12.656Z,105.53
2019-01-24T23:35:41.859Z,111.60
2019-01-24T23:38:11.038Z,103.43
2019-01-24T23:40:40.560Z,105.43
2019-01-24T23:43:09.843Z,103.63
2019-01-24T23:45:39.055Z,106.67
2019-01-24T23:48:08.230Z,104.97
2019-01-24T23:50:37.445Z,109.67
2019-01-24T23:53:06.899Z,104.10
2019-01-24T23:55:36.093Z,117.33
2019-01-24T23:58:05.378Z,105.07
